sensor_id;sensor_type;location;lat;lon;timestamp;pressure;altitude;pressure_sealevel;temperature;humidity
23361;BME280;11852;50.082;18.554;2023-01-25T00:00:20;100475.5;;;2.76;86.76
23361;BME280;11852;50.082;18.554;2023-01-25T00:01:27;100473.5;;;2.77;86.55
23361;BME280;11852;50.082;18.554;2023-01-25T00:02:34;100472.5;;;2.82;86.4
23361;BME280;11852;50.082;18.554;2023-01-25T00:03:41;100468.5;;;2.82;86.44
23361;BME280;11852;50.082;18.554;2023-01-25T00:04:48;100471.5;;;2.88;86.62
23361;BME280;11852;50.082;18.554;2023-01-25T00:05:58;100469.99;;;2.8;86.99
23361;BME280;11852;50.082;18.554;2023-01-25T00:07:07;100468.5;;;2.89;86.85
23361;BME280;11852;50.082;18.554;2023-01-25T00:08:15;100468.01;;;3.01;86.32
23361;BME280;11852;50.082;18.554;2023-01-25T00:09:22;100468.0;;;3.01;86.14
23361;BME280;11852;50.082;18.554;2023-01-25T00:10:31;100471.0;;;3.02;86.04
23361;BME280;11852;50.082;18.554;2023-01-25T00:11:38;100469.0;;;3.06;85.99
23361;BME280;11852;50.082;18.554;2023-01-25T00:12:45;100469.5;;;2.82;87.07
23361;BME280;11852;50.082;18.554;2023-01-25T00:13:54;100469.5;;;2.85;86.92
23361;BME280;11852;50.082;18.554;2023-01-25T00:15:03;100472.0;;;2.86;86.59
23361;BME280;11852;50.082;18.554;2023-01-25T00:16:10;100469.0;;;2.53;87.92
23361;BME280;11852;50.082;18.554;2023-01-25T00:17:17;100471.5;;;2.38;88.24
23361;BME280;11852;50.082;18.554;2023-01-25T00:18:24;100470.49;;;2.4;88.03
23361;BME280;11852;50.082;18.554;2023-01-25T00:19:31;100470.49;;;2.68;87.45
23361;BME280;11852;50.082;18.554;2023-01-25T00:20:39;100465.0;;;2.81;87.26
23361;BME280;11852;50.082;18.554;2023-01-25T00:21:46;100470.5;;;2.92;86.96
23361;BME280;11852;50.082;18.554;2023-01-25T00:22:52;100469.5;;;2.99;86.79
23361;BME280;11852;50.082;18.554;2023-01-25T00:24:00;100471.0;;;3.05;86.51
23361;BME280;11852;50.082;18.554;2023-01-25T00:25:07;100470.5;;;3.11;86.36
23361;BME280;11852;50.082;18.554;2023-01-25T00:26:14;100469.5;;;3.12;86.21
23361;BME280;11852;50.082;18.554;2023-01-25T00:27:22;100469.5;;;3.13;86.21
23361;BME280;11852;50.082;18.554;2023-01-25T00:28:29;100472.0;;;3.03;86.6
23361;BME280;11852;50.082;18.554;2023-01-25T00:29:36;100471.0;;;3.12;86.37
23361;BME280;11852;50.082;18.554;2023-01-25T00:30:43;100470.49;;;3.05;86.49
23361;BME280;11852;50.082;18.554;2023-01-25T00:33:05;100464.0;;;3.07;86.19
23361;BME280;11852;50.082;18.554;2023-01-25T00:35:29;100454.0;;;3.17;85.76
23361;BME280;11852;50.082;18.554;2023-01-25T00:37:45;100448.0;;;3.15;85.81
23361;BME280;11852;50.082;18.554;2023-01-25T00:38:51;100448.0;;;3.19;85.71
23361;BME280;11852;50.082;18.554;2023-01-25T00:39:57;100448.5;;;3.26;85.59
23361;BME280;11852;50.082;18.554;2023-01-25T00:41:06;100449.5;;;3.3;85.54
23361;BME280;11852;50.082;18.554;2023-01-25T00:42:14;100450.0;;;3.16;85.99
23361;BME280;11852;50.082;18.554;2023-01-25T00:43:20;100451.5;;;3.07;86.1
23361;BME280;11852;50.082;18.554;2023-01-25T00:44:28;100451.0;;;3.07;86.0
23361;BME280;11852;50.082;18.554;2023-01-25T00:45:36;100450.0;;;2.97;86.35
23361;BME280;11852;50.082;18.554;2023-01-25T00:46:43;100452.0;;;3.01;86.18
23361;BME280;11852;50.082;18.554;2023-01-25T00:47:52;100449.5;;;3.05;86.14
23361;BME280;11852;50.082;18.554;2023-01-25T00:48:57;100449.0;;;3.01;86.45
23361;BME280;11852;50.082;18.554;2023-01-25T00:50:05;100447.0;;;3.05;86.39
23361;BME280;11852;50.082;18.554;2023-01-25T00:51:12;100447.5;;;3.05;86.54
23361;BME280;11852;50.082;18.554;2023-01-25T00:52:19;100450.0;;;3.08;86.38
23361;BME280;11852;50.082;18.554;2023-01-25T00:53:27;100454.5;;;3.03;86.6
23361;BME280;11852;50.082;18.554;2023-01-25T00:54:34;100453.0;;;3.1;86.36
23361;BME280;11852;50.082;18.554;2023-01-25T00:55:50;100454.0;;;3.09;86.42
23361;BME280;11852;50.082;18.554;2023-01-25T00:56:52;100457.49;;;3.05;86.47
23361;BME280;11852;50.082;18.554;2023-01-25T00:58:00;100457.0;;;3.02;86.54
23361;BME280;11852;50.082;18.554;2023-01-25T00:59:08;100459.0;;;2.98;86.64
23361;BME280;11852;50.082;18.554;2023-01-25T01:00:14;100465.5;;;2.88;86.87
23361;BME280;11852;50.082;18.554;2023-01-25T01:01:22;100466.5;;;2.97;86.56
23361;BME280;11852;50.082;18.554;2023-01-25T01:02:29;100467.51;;;3.01;86.65
23361;BME280;11852;50.082;18.554;2023-01-25T01:03:37;100471.5;;;2.7;87.59
23361;BME280;11852;50.082;18.554;2023-01-25T01:04:44;100469.0;;;2.94;87.03
23361;BME280;11852;50.082;18.554;2023-01-25T01:07:03;100462.5;;;2.89;87.2
23361;BME280;11852;50.082;18.554;2023-01-25T01:08:13;100461.5;;;2.92;86.94
23361;BME280;11852;50.082;18.554;2023-01-25T01:09:18;100462.0;;;3.03;86.57
23361;BME280;11852;50.082;18.554;2023-01-25T01:10:24;100458.5;;;2.99;86.62
23361;BME280;11852;50.082;18.554;2023-01-25T01:11:32;100456.5;;;2.98;86.7
23361;BME280;11852;50.082;18.554;2023-01-25T01:12:39;100452.0;;;2.86;86.96
23361;BME280;11852;50.082;18.554;2023-01-25T01:13:46;100453.0;;;2.82;86.94
23361;BME280;11852;50.082;18.554;2023-01-25T01:14:54;100454.5;;;2.88;87.03
23361;BME280;11852;50.082;18.554;2023-01-25T01:16:03;100450.0;;;2.7;87.54
23361;BME280;11852;50.082;18.554;2023-01-25T01:17:10;100451.5;;;2.84;87.13
23361;BME280;11852;50.082;18.554;2023-01-25T01:18:17;100448.5;;;2.87;87.17
23361;BME280;11852;50.082;18.554;2023-01-25T01:19:24;100444.99;;;2.78;87.65
23361;BME280;11852;50.082;18.554;2023-01-25T01:20:31;100443.5;;;2.91;86.97
23361;BME280;11852;50.082;18.554;2023-01-25T01:21:40;100444.49;;;2.93;86.82
23361;BME280;11852;50.082;18.554;2023-01-25T01:22:47;100441.5;;;2.76;87.04
23361;BME280;11852;50.082;18.554;2023-01-25T01:23:54;100441.5;;;2.63;87.57
23361;BME280;11852;50.082;18.554;2023-01-25T01:25:01;100436.5;;;2.78;87.08
23361;BME280;11852;50.082;18.554;2023-01-25T01:26:10;100436.0;;;2.8;86.92
23361;BME280;11852;50.082;18.554;2023-01-25T01:27:15;100431.0;;;2.8;86.89
23361;BME280;11852;50.082;18.554;2023-01-25T01:28:22;100430.0;;;2.73;87.31
23361;BME280;11852;50.082;18.554;2023-01-25T01:29:30;100428.0;;;2.63;87.48
23361;BME280;11852;50.082;18.554;2023-01-25T01:30:37;100425.0;;;2.49;88.06
23361;BME280;11852;50.082;18.554;2023-01-25T01:31:44;100426.5;;;2.5;87.82
23361;BME280;11852;50.082;18.554;2023-01-25T01:32:52;100424.5;;;2.63;87.57
23361;BME280;11852;50.082;18.554;2023-01-25T01:34:00;100419.0;;;2.59;87.36
23361;BME280;11852;50.082;18.554;2023-01-25T01:35:08;100416.0;;;2.54;87.47
23361;BME280;11852;50.082;18.554;2023-01-25T01:36:16;100412.5;;;2.63;87.32
23361;BME280;11852;50.082;18.554;2023-01-25T01:37:22;100411.0;;;2.61;87.28
23361;BME280;11852;50.082;18.554;2023-01-25T01:38:29;100412.5;;;2.67;87.24
23361;BME280;11852;50.082;18.554;2023-01-25T01:39:36;100412.0;;;2.73;87.04
23361;BME280;11852;50.082;18.554;2023-01-25T01:40:46;100410.5;;;2.82;87.1
23361;BME280;11852;50.082;18.554;2023-01-25T01:41:51;100407.49;;;2.88;86.89
23361;BME280;11852;50.082;18.554;2023-01-25T01:43:00;100406.5;;;2.81;86.9
23361;BME280;11852;50.082;18.554;2023-01-25T01:44:10;100400.5;;;2.89;86.73
23361;BME280;11852;50.082;18.554;2023-01-25T01:46:34;100396.5;;;2.72;86.98
23361;BME280;11852;50.082;18.554;2023-01-25T01:47:41;100395.49;;;2.68;87.21
23361;BME280;11852;50.082;18.554;2023-01-25T01:48:53;100394.5;;;2.74;86.69
23361;BME280;11852;50.082;18.554;2023-01-25T01:50:03;100394.0;;;2.81;86.42
23361;BME280;11852;50.082;18.554;2023-01-25T01:52:22;100391.5;;;2.84;86.48
23361;BME280;11852;50.082;18.554;2023-01-25T01:53:28;100391.0;;;2.8;86.54
23361;BME280;11852;50.082;18.554;2023-01-25T01:54:42;100395.0;;;2.9;86.21
23361;BME280;11852;50.082;18.554;2023-01-25T01:55:50;100394.5;;;2.93;85.92
23361;BME280;11852;50.082;18.554;2023-01-25T01:57:02;100396.5;;;2.83;86.27
23361;BME280;11852;50.082;18.554;2023-01-25T01:58:06;100397.0;;;2.74;86.71
23361;BME280;11852;50.082;18.554;2023-01-25T01:59:13;100398.0;;;2.88;86.19
23361;BME280;11852;50.082;18.554;2023-01-25T02:00:27;100398.5;;;2.66;86.92
23361;BME280;11852;50.082;18.554;2023-01-25T02:01:34;100394.0;;;2.56;87.32
23361;BME280;11852;50.082;18.554;2023-01-25T02:02:42;100392.01;;;2.55;87.19
23361;BME280;11852;50.082;18.554;2023-01-25T02:03:50;100388.5;;;2.53;87.4
23361;BME280;11852;50.082;18.554;2023-01-25T02:04:57;100387.0;;;2.58;87.35
23361;BME280;11852;50.082;18.554;2023-01-25T02:06:07;100390.0;;;2.77;86.88
23361;BME280;11852;50.082;18.554;2023-01-25T02:08:22;100391.0;;;2.74;86.52
23361;BME280;11852;50.082;18.554;2023-01-25T02:09:30;100385.0;;;2.7;86.85
23361;BME280;11852;50.082;18.554;2023-01-25T02:10:36;100385.5;;;2.67;86.71
23361;BME280;11852;50.082;18.554;2023-01-25T02:11:44;100383.5;;;2.79;86.36
23361;BME280;11852;50.082;18.554;2023-01-25T02:12:52;100385.0;;;2.81;86.32
23361;BME280;11852;50.082;18.554;2023-01-25T02:13:58;100381.0;;;2.79;86.35
23361;BME280;11852;50.082;18.554;2023-01-25T02:15:07;100380.0;;;2.78;86.3
23361;BME280;11852;50.082;18.554;2023-01-25T02:16:18;100381.0;;;2.83;86.12
23361;BME280;11852;50.082;18.554;2023-01-25T02:17:28;100376.5;;;2.88;86.07
23361;BME280;11852;50.082;18.554;2023-01-25T02:18:34;100373.5;;;2.85;86.19
23361;BME280;11852;50.082;18.554;2023-01-25T02:20:54;100375.0;;;2.8;86.18
23361;BME280;11852;50.082;18.554;2023-01-25T02:22:00;100371.0;;;2.82;86.21
23361;BME280;11852;50.082;18.554;2023-01-25T02:23:11;100372.5;;;2.76;86.18
23361;BME280;11852;50.082;18.554;2023-01-25T02:24:18;100370.0;;;2.7;86.27
23361;BME280;11852;50.082;18.554;2023-01-25T02:25:22;100368.5;;;2.7;86.19
23361;BME280;11852;50.082;18.554;2023-01-25T02:26:30;100369.49;;;2.74;86.15
23361;BME280;11852;50.082;18.554;2023-01-25T02:27:40;100369.49;;;2.65;86.19
23361;BME280;11852;50.082;18.554;2023-01-25T02:28:47;100371.5;;;2.64;86.19
23361;BME280;11852;50.082;18.554;2023-01-25T02:29:53;100371.5;;;2.82;85.85
23361;BME280;11852;50.082;18.554;2023-01-25T02:31:00;100374.0;;;2.78;86.0
23361;BME280;11852;50.082;18.554;2023-01-25T02:32:08;100372.5;;;2.76;86.05
23361;BME280;11852;50.082;18.554;2023-01-25T02:33:15;100369.0;;;2.82;85.79
23361;BME280;11852;50.082;18.554;2023-01-25T02:34:23;100373.5;;;2.87;85.68
23361;BME280;11852;50.082;18.554;2023-01-25T02:35:41;100374.0;;;2.86;85.75
23361;BME280;11852;50.082;18.554;2023-01-25T02:36:46;100373.5;;;2.82;85.76
23361;BME280;11852;50.082;18.554;2023-01-25T02:37:54;100372.5;;;2.76;85.85
23361;BME280;11852;50.082;18.554;2023-01-25T02:39:02;100370.49;;;2.57;86.15
23361;BME280;11852;50.082;18.554;2023-01-25T02:40:08;100369.0;;;2.44;86.24
23361;BME280;11852;50.082;18.554;2023-01-25T02:41:17;100369.0;;;2.49;86.12
23361;BME280;11852;50.082;18.554;2023-01-25T02:42:23;100373.0;;;2.37;86.46
23361;BME280;11852;50.082;18.554;2023-01-25T02:43:31;100372.5;;;2.38;86.17
23361;BME280;11852;50.082;18.554;2023-01-25T02:44:37;100373.0;;;2.47;85.92
23361;BME280;11852;50.082;18.554;2023-01-25T02:45:45;100373.0;;;2.45;86.0
23361;BME280;11852;50.082;18.554;2023-01-25T02:46:52;100371.5;;;2.41;85.82
23361;BME280;11852;50.082;18.554;2023-01-25T02:47:59;100374.0;;;2.55;85.5
23361;BME280;11852;50.082;18.554;2023-01-25T02:49:07;100375.0;;;2.51;85.75
23361;BME280;11852;50.082;18.554;2023-01-25T02:50:13;100373.0;;;2.41;85.6
23361;BME280;11852;50.082;18.554;2023-01-25T02:51:21;100376.0;;;2.33;85.66
23361;BME280;11852;50.082;18.554;2023-01-25T02:52:27;100372.5;;;2.35;85.58
23361;BME280;11852;50.082;18.554;2023-01-25T02:53:34;100374.0;;;2.49;85.1
23361;BME280;11852;50.082;18.554;2023-01-25T02:54:41;100371.5;;;2.49;85.23
23361;BME280;11852;50.082;18.554;2023-01-25T02:55:49;100374.0;;;2.35;85.23
23361;BME280;11852;50.082;18.554;2023-01-25T02:56:56;100375.0;;;2.21;85.65
23361;BME280;11852;50.082;18.554;2023-01-25T02:58:04;100373.0;;;2.32;85.34
23361;BME280;11852;50.082;18.554;2023-01-25T02:59:11;100371.0;;;2.33;85.1
23361;BME280;11852;50.082;18.554;2023-01-25T03:00:18;100369.0;;;2.54;84.77
23361;BME280;11852;50.082;18.554;2023-01-25T03:01:25;100369.5;;;2.64;84.47
23361;BME280;11852;50.082;18.554;2023-01-25T03:02:32;100368.0;;;2.65;84.21
23361;BME280;11852;50.082;18.554;2023-01-25T03:03:39;100367.5;;;2.64;84.43
23361;BME280;11852;50.082;18.554;2023-01-25T03:04:47;100364.0;;;2.51;84.62
23361;BME280;11852;50.082;18.554;2023-01-25T03:05:54;100364.5;;;2.59;84.13
23361;BME280;11852;50.082;18.554;2023-01-25T03:07:01;100364.0;;;2.36;84.67
23361;BME280;11852;50.082;18.554;2023-01-25T03:08:08;100364.0;;;2.53;84.26
23361;BME280;11852;50.082;18.554;2023-01-25T03:09:15;100361.5;;;2.6;84.28
23361;BME280;11852;50.082;18.554;2023-01-25T03:10:23;100360.5;;;2.78;83.92
23361;BME280;11852;50.082;18.554;2023-01-25T03:11:30;100358.0;;;2.82;83.62
23361;BME280;11852;50.082;18.554;2023-01-25T03:12:39;100360.0;;;2.81;83.51
23361;BME280;11852;50.082;18.554;2023-01-25T03:13:47;100362.0;;;2.43;84.37
23361;BME280;11852;50.082;18.554;2023-01-25T03:14:54;100361.5;;;2.35;84.43
23361;BME280;11852;50.082;18.554;2023-01-25T03:16:05;100363.5;;;2.43;84.43
23361;BME280;11852;50.082;18.554;2023-01-25T03:17:11;100362.5;;;2.32;84.5
23361;BME280;11852;50.082;18.554;2023-01-25T03:18:18;100363.0;;;2.35;84.4
23361;BME280;11852;50.082;18.554;2023-01-25T03:19:25;100362.0;;;2.45;83.93
23361;BME280;11852;50.082;18.554;2023-01-25T03:20:32;100357.49;;;2.57;83.79
23361;BME280;11852;50.082;18.554;2023-01-25T03:21:39;100360.0;;;2.44;84.31
23361;BME280;11852;50.082;18.554;2023-01-25T03:22:46;100361.5;;;2.51;84.01
23361;BME280;11852;50.082;18.554;2023-01-25T03:23:55;100358.0;;;2.38;84.35
23361;BME280;11852;50.082;18.554;2023-01-25T03:25:01;100360.0;;;2.45;83.97
23361;BME280;11852;50.082;18.554;2023-01-25T03:26:09;100361.5;;;2.43;84.04
23361;BME280;11852;50.082;18.554;2023-01-25T03:27:15;100360.0;;;2.51;83.82
23361;BME280;11852;50.082;18.554;2023-01-25T03:28:22;100359.0;;;2.37;84.11
23361;BME280;11852;50.082;18.554;2023-01-25T03:29:29;100359.0;;;2.43;83.84
23361;BME280;11852;50.082;18.554;2023-01-25T03:30:37;100355.0;;;2.38;83.79
23361;BME280;11852;50.082;18.554;2023-01-25T03:31:43;100355.01;;;2.42;83.76
23361;BME280;11852;50.082;18.554;2023-01-25T03:32:51;100358.0;;;2.45;83.67
23361;BME280;11852;50.082;18.554;2023-01-25T03:33:59;100359.0;;;2.57;83.38
23361;BME280;11852;50.082;18.554;2023-01-25T03:35:07;100358.0;;;2.62;83.34
23361;BME280;11852;50.082;18.554;2023-01-25T03:36:14;100360.0;;;2.7;83.2
23361;BME280;11852;50.082;18.554;2023-01-25T03:37:21;100357.0;;;2.66;83.36
23361;BME280;11852;50.082;18.554;2023-01-25T03:38:29;100356.0;;;2.72;83.27
23361;BME280;11852;50.082;18.554;2023-01-25T03:39:36;100356.5;;;2.76;83.17
23361;BME280;11852;50.082;18.554;2023-01-25T03:40:43;100355.5;;;2.74;83.24
23361;BME280;11852;50.082;18.554;2023-01-25T03:41:51;100360.5;;;2.82;83.01
23361;BME280;11852;50.082;18.554;2023-01-25T03:42:58;100359.0;;;2.68;83.18
23361;BME280;11852;50.082;18.554;2023-01-25T03:44:05;100356.5;;;2.77;82.96
23361;BME280;11852;50.082;18.554;2023-01-25T03:45:12;100356.5;;;2.81;82.77
23361;BME280;11852;50.082;18.554;2023-01-25T03:46:19;100357.5;;;2.72;82.99
23361;BME280;11852;50.082;18.554;2023-01-25T03:47:26;100355.5;;;2.81;82.71
23361;BME280;11852;50.082;18.554;2023-01-25T03:48:33;100353.5;;;2.83;82.82
23361;BME280;11852;50.082;18.554;2023-01-25T03:49:40;100354.0;;;2.8;82.82
23361;BME280;11852;50.082;18.554;2023-01-25T03:50:48;100352.0;;;2.7;83.07
23361;BME280;11852;50.082;18.554;2023-01-25T03:51:54;100352.0;;;2.68;83.35
23361;BME280;11852;50.082;18.554;2023-01-25T03:53:19;100352.5;;;2.72;83.01
23361;BME280;11852;50.082;18.554;2023-01-25T03:54:08;100352.0;;;2.73;82.87
23361;BME280;11852;50.082;18.554;2023-01-25T03:55:15;100354.51;;;2.83;82.85
23361;BME280;11852;50.082;18.554;2023-01-25T03:56:23;100355.51;;;2.73;83.1
23361;BME280;11852;50.082;18.554;2023-01-25T03:57:30;100356.5;;;2.73;82.82
23361;BME280;11852;50.082;18.554;2023-01-25T03:58:38;100357.0;;;2.77;82.88
23361;BME280;11852;50.082;18.554;2023-01-25T03:59:44;100351.5;;;2.88;82.68
23361;BME280;11852;50.082;18.554;2023-01-25T04:00:53;100353.5;;;2.95;82.59
23361;BME280;11852;50.082;18.554;2023-01-25T04:01:59;100350.0;;;2.81;83.46
23361;BME280;11852;50.082;18.554;2023-01-25T04:03:07;100353.5;;;2.55;83.39
23361;BME280;11852;50.082;18.554;2023-01-25T04:04:14;100354.0;;;2.51;83.63
23361;BME280;11852;50.082;18.554;2023-01-25T04:05:21;100353.5;;;2.6;83.32
23361;BME280;11852;50.082;18.554;2023-01-25T04:06:29;100351.0;;;2.28;84.38
23361;BME280;11852;50.082;18.554;2023-01-25T04:07:36;100349.0;;;2.13;85.04
23361;BME280;11852;50.082;18.554;2023-01-25T04:08:43;100345.0;;;2.1;85.68
23361;BME280;11852;50.082;18.554;2023-01-25T04:09:51;100343.0;;;2.2;85.5
23361;BME280;11852;50.082;18.554;2023-01-25T04:11:05;100340.5;;;2.45;84.51
23361;BME280;11852;50.082;18.554;2023-01-25T04:12:10;100341.0;;;2.58;84.01
23361;BME280;11852;50.082;18.554;2023-01-25T04:13:18;100341.0;;;2.64;84.1
23361;BME280;11852;50.082;18.554;2023-01-25T04:14:25;100342.5;;;2.76;84.24
23361;BME280;11852;50.082;18.554;2023-01-25T04:15:32;100340.5;;;2.7;83.99
23361;BME280;11852;50.082;18.554;2023-01-25T04:16:40;100343.5;;;2.65;83.8
23361;BME280;11852;50.082;18.554;2023-01-25T04:17:47;100339.0;;;2.67;83.56
23361;BME280;11852;50.082;18.554;2023-01-25T04:18:54;100338.0;;;2.63;83.71
23361;BME280;11852;50.082;18.554;2023-01-25T04:20:01;100338.5;;;2.68;83.46
23361;BME280;11852;50.082;18.554;2023-01-25T04:21:08;100339.0;;;2.81;83.21
23361;BME280;11852;50.082;18.554;2023-01-25T04:22:15;100337.0;;;2.83;83.19
23361;BME280;11852;50.082;18.554;2023-01-25T04:23:23;100336.0;;;2.92;83.1
23361;BME280;11852;50.082;18.554;2023-01-25T04:24:30;100332.5;;;2.9;83.21
23361;BME280;11852;50.082;18.554;2023-01-25T04:25:37;100337.0;;;2.74;83.67
23361;BME280;11852;50.082;18.554;2023-01-25T04:26:44;100331.5;;;2.73;83.56
23361;BME280;11852;50.082;18.554;2023-01-25T04:27:51;100332.0;;;2.69;83.29
23361;BME280;11852;50.082;18.554;2023-01-25T04:28:59;100332.0;;;2.75;83.23
23361;BME280;11852;50.082;18.554;2023-01-25T04:30:07;100336.5;;;2.81;83.26
23361;BME280;11852;50.082;18.554;2023-01-25T04:31:16;100334.0;;;2.62;83.84
23361;BME280;11852;50.082;18.554;2023-01-25T04:32:23;100336.5;;;2.69;83.76
23361;BME280;11852;50.082;18.554;2023-01-25T04:33:30;100334.0;;;2.83;83.45
23361;BME280;11852;50.082;18.554;2023-01-25T04:34:37;100331.99;;;2.83;83.42
23361;BME280;11852;50.082;18.554;2023-01-25T04:35:44;100330.01;;;2.85;83.14
23361;BME280;11852;50.082;18.554;2023-01-25T04:36:52;100329.0;;;2.87;83.15
23361;BME280;11852;50.082;18.554;2023-01-25T04:37:59;100329.51;;;2.94;82.9
23361;BME280;11852;50.082;18.554;2023-01-25T04:39:06;100326.0;;;2.99;82.93
23361;BME280;11852;50.082;18.554;2023-01-25T04:40:14;100323.5;;;3.03;82.96
23361;BME280;11852;50.082;18.554;2023-01-25T04:41:21;100324.0;;;3.02;82.99
23361;BME280;11852;50.082;18.554;2023-01-25T04:42:29;100322.0;;;3.06;83.01
23361;BME280;11852;50.082;18.554;2023-01-25T04:43:36;100324.0;;;3.05;82.85
23361;BME280;11852;50.082;18.554;2023-01-25T04:44:43;100319.99;;;3.03;82.72
23361;BME280;11852;50.082;18.554;2023-01-25T04:45:50;100316.5;;;2.96;82.96
23361;BME280;11852;50.082;18.554;2023-01-25T04:46:57;100310.5;;;2.96;82.87
23361;BME280;11852;50.082;18.554;2023-01-25T04:48:05;100315.0;;;2.98;82.9
23361;BME280;11852;50.082;18.554;2023-01-25T04:49:11;100309.0;;;2.96;82.92
23361;BME280;11852;50.082;18.554;2023-01-25T04:50:19;100309.0;;;2.96;82.87
23361;BME280;11852;50.082;18.554;2023-01-25T04:51:27;100309.0;;;2.94;82.93
23361;BME280;11852;50.082;18.554;2023-01-25T04:52:34;100306.5;;;2.98;82.76
23361;BME280;11852;50.082;18.554;2023-01-25T04:53:42;100303.0;;;3.01;82.82
23361;BME280;11852;50.082;18.554;2023-01-25T04:54:49;100304.0;;;3.02;82.82
23361;BME280;11852;50.082;18.554;2023-01-25T04:55:56;100306.5;;;2.97;82.93
23361;BME280;11852;50.082;18.554;2023-01-25T04:57:03;100304.51;;;3.0;82.93
23361;BME280;11852;50.082;18.554;2023-01-25T04:58:10;100303.0;;;2.97;82.94
23361;BME280;11852;50.082;18.554;2023-01-25T04:59:19;100306.01;;;2.99;82.88
23361;BME280;11852;50.082;18.554;2023-01-25T05:00:27;100305.01;;;3.03;82.89
23361;BME280;11852;50.082;18.554;2023-01-25T05:01:35;100306.5;;;2.97;83.16
23361;BME280;11852;50.082;18.554;2023-01-25T05:02:42;100307.0;;;2.76;83.56
23361;BME280;11852;50.082;18.554;2023-01-25T05:03:49;100311.5;;;2.96;82.98
23361;BME280;11852;50.082;18.554;2023-01-25T05:04:56;100313.0;;;3.03;82.86
23361;BME280;11852;50.082;18.554;2023-01-25T05:06:04;100314.5;;;3.05;82.85
23361;BME280;11852;50.082;18.554;2023-01-25T05:07:11;100308.5;;;3.05;82.83
23361;BME280;11852;50.082;18.554;2023-01-25T05:08:18;100307.0;;;2.97;83.05
23361;BME280;11852;50.082;18.554;2023-01-25T05:09:27;100307.0;;;2.99;82.91
23361;BME280;11852;50.082;18.554;2023-01-25T05:10:34;100309.5;;;3.05;82.79
23361;BME280;11852;50.082;18.554;2023-01-25T05:11:41;100306.5;;;3.05;82.78
23361;BME280;11852;50.082;18.554;2023-01-25T05:12:48;100306.5;;;3.07;82.98
23361;BME280;11852;50.082;18.554;2023-01-25T05:13:55;100305.01;;;3.03;82.92
23361;BME280;11852;50.082;18.554;2023-01-25T05:15:02;100305.5;;;3.09;82.75
23361;BME280;11852;50.082;18.554;2023-01-25T05:16:09;100303.5;;;3.14;82.7
23361;BME280;11852;50.082;18.554;2023-01-25T05:17:16;100307.0;;;3.17;82.74
23361;BME280;11852;50.082;18.554;2023-01-25T05:18:23;100305.5;;;3.19;82.72
23361;BME280;11852;50.082;18.554;2023-01-25T05:19:30;100303.5;;;3.21;82.69
23361;BME280;11852;50.082;18.554;2023-01-25T05:20:37;100305.01;;;3.17;82.88
23361;BME280;11852;50.082;18.554;2023-01-25T05:21:49;100304.0;;;3.11;82.91
23361;BME280;11852;50.082;18.554;2023-01-25T05:22:58;100301.5;;;3.03;83.07
23361;BME280;11852;50.082;18.554;2023-01-25T05:24:06;100300.5;;;3.09;83.03
23361;BME280;11852;50.082;18.554;2023-01-25T05:25:18;100298.5;;;3.09;83.01
23361;BME280;11852;50.082;18.554;2023-01-25T05:26:30;100299.5;;;3.09;82.92
23361;BME280;11852;50.082;18.554;2023-01-25T05:27:38;100296.5;;;3.07;82.98
23361;BME280;11852;50.082;18.554;2023-01-25T05:28:45;100293.0;;;2.87;83.5
23361;BME280;11852;50.082;18.554;2023-01-25T05:29:52;100293.01;;;2.73;83.67
23361;BME280;11852;50.082;18.554;2023-01-25T05:31:02;100291.5;;;2.86;83.25
23361;BME280;11852;50.082;18.554;2023-01-25T05:33:19;100288.5;;;2.96;82.97
23361;BME280;11852;50.082;18.554;2023-01-25T05:34:27;100286.0;;;3.01;83.0
23361;BME280;11852;50.082;18.554;2023-01-25T05:35:34;100284.0;;;3.05;83.07
23361;BME280;11852;50.082;18.554;2023-01-25T05:36:41;100285.0;;;3.03;83.25
23361;BME280;11852;50.082;18.554;2023-01-25T05:37:48;100284.5;;;3.01;83.19
23361;BME280;11852;50.082;18.554;2023-01-25T05:38:55;100282.5;;;2.96;83.31
23361;BME280;11852;50.082;18.554;2023-01-25T05:40:03;100282.99;;;3.02;83.0
23361;BME280;11852;50.082;18.554;2023-01-25T05:41:10;100280.01;;;3.03;83.04
23361;BME280;11852;50.082;18.554;2023-01-25T05:42:17;100283.0;;;3.08;82.91
23361;BME280;11852;50.082;18.554;2023-01-25T05:43:25;100281.5;;;3.06;82.91
23361;BME280;11852;50.082;18.554;2023-01-25T05:44:33;100280.51;;;3.09;82.9
23361;BME280;11852;50.082;18.554;2023-01-25T05:45:41;100280.01;;;3.11;82.87
23361;BME280;11852;50.082;18.554;2023-01-25T05:46:48;100276.0;;;3.11;82.9
23361;BME280;11852;50.082;18.554;2023-01-25T05:47:55;100278.5;;;3.13;82.76
23361;BME280;11852;50.082;18.554;2023-01-25T05:49:02;100280.5;;;3.13;82.8
23361;BME280;11852;50.082;18.554;2023-01-25T05:50:10;100280.01;;;3.09;82.83
23361;BME280;11852;50.082;18.554;2023-01-25T05:51:17;100279.51;;;3.08;82.75
23361;BME280;11852;50.082;18.554;2023-01-25T05:52:25;100277.0;;;3.12;82.81
23361;BME280;11852;50.082;18.554;2023-01-25T05:53:33;100276.5;;;3.11;82.62
23361;BME280;11852;50.082;18.554;2023-01-25T05:54:40;100277.0;;;3.13;82.65
23361;BME280;11852;50.082;18.554;2023-01-25T05:55:47;100276.5;;;3.18;82.69
23361;BME280;11852;50.082;18.554;2023-01-25T05:56:54;100277.5;;;3.2;82.73
23361;BME280;11852;50.082;18.554;2023-01-25T05:58:01;100278.5;;;3.19;82.61
23361;BME280;11852;50.082;18.554;2023-01-25T05:59:09;100278.5;;;3.18;82.75
23361;BME280;11852;50.082;18.554;2023-01-25T06:00:16;100278.0;;;3.18;82.68
23361;BME280;11852;50.082;18.554;2023-01-25T06:01:24;100275.5;;;3.19;82.56
23361;BME280;11852;50.082;18.554;2023-01-25T06:02:32;100277.0;;;3.19;82.65
23361;BME280;11852;50.082;18.554;2023-01-25T06:03:39;100275.0;;;3.21;82.68
23361;BME280;11852;50.082;18.554;2023-01-25T06:04:46;100273.5;;;3.21;82.71
23361;BME280;11852;50.082;18.554;2023-01-25T06:05:53;100274.5;;;3.15;82.82
23361;BME280;11852;50.082;18.554;2023-01-25T06:07:00;100275.0;;;3.14;82.89
23361;BME280;11852;50.082;18.554;2023-01-25T06:08:08;100273.5;;;3.2;82.78